Time;durP1;ratioP1;P1;durP2;ratioP2;P2;SDS_P1;SDS_P2;PMS_P1;PMS_P2;Temp;Humidity;BMP_temperature;BMP_pressure;BME280_temperature;BME280_humidity;BME280_pressure;Samples;Min_cycle;Max_cycle;Signal;HPM_P1;HPM_P2
2022/09/02 00:01:18;;;;;;;4.53;3.30;;;;;;;23.23;57.57;100189.38;5057176;28;20456;-60
2022/09/02 00:03:44;;;;;;;5.43;2.97;;;;;;;23.24;57.73;100185.25;5070806;28;20493;-60
2022/09/02 00:06:09;;;;;;;5.37;3.40;;;;;;;23.25;57.46;100189.78;5069389;28;20500;-60
2022/09/02 00:08:34;;;;;;;4.07;3.13;;;;;;;23.24;57.80;100174.53;5047206;28;20190;-61
2022/09/02 00:11:01;;;;;;;6.23;2.90;;;;;;;23.23;57.64;100187.31;5060709;28;20179;-60
2022/09/02 00:13:26;;;;;;;3.70;3.23;;;;;;;23.23;57.88;100181.53;5069034;28;20226;-60
2022/09/02 00:15:52;;;;;;;4.87;3.50;;;;;;;23.23;57.24;100178.66;5068985;28;20429;-61
2022/09/02 00:18:18;;;;;;;4.80;3.40;;;;;;;23.24;57.46;100185.25;5070436;28;20179;-60
2022/09/02 00:20:44;;;;;;;6.87;3.70;;;;;;;23.24;57.63;100179.50;5070280;28;20195;-61
2022/09/02 00:23:10;;;;;;;7.53;3.37;;;;;;;23.24;57.48;100174.53;5068963;28;20803;-61
2022/09/02 00:25:36;;;;;;;6.00;3.33;;;;;;;23.22;57.68;100168.38;5069368;28;20425;-60
2022/09/02 00:28:02;;;;;;;5.77;3.40;;;;;;;23.22;57.60;100171.28;5069870;28;20179;-60
2022/09/02 00:30:28;;;;;;;5.33;3.40;;;;;;;23.21;57.25;100171.69;5073158;28;20773;-60
2022/09/02 00:32:53;;;;;;;7.23;4.27;;;;;;;23.21;57.44;100169.63;5073282;28;20285;-60
2022/09/02 00:35:20;;;;;;;3.67;3.27;;;;;;;23.19;57.32;100169.22;5073109;28;20554;-61
2022/09/02 00:37:45;;;;;;;5.33;3.47;;;;;;;23.20;57.43;100173.75;5072929;28;20185;-61
2022/09/02 00:40:11;;;;;;;3.97;3.57;;;;;;;23.18;57.33;100164.69;5073612;28;20452;-60
2022/09/02 00:42:37;;;;;;;5.63;3.70;;;;;;;23.17;57.05;100174.53;5072137;28;20186;-60
2022/09/02 00:45:03;;;;;;;5.13;3.40;;;;;;;23.18;57.22;100169.66;5073557;28;20186;-60
2022/09/02 00:47:29;;;;;;;6.73;3.50;;;;;;;23.17;56.95;100165.91;5072623;28;20171;-60
2022/09/02 00:49:55;;;;;;;6.07;3.30;;;;;;;23.18;57.65;100169.66;5072458;28;20416;-61
2022/09/02 00:52:30;;;;;;;3.40;2.80;;;;;;;23.18;57.73;100170.44;5072397;28;20221;-60
2022/09/02 00:54:57;;;;;;;7.20;3.77;;;;;;;23.19;57.48;100166.31;5054480;28;20194;-60
2022/09/02 00:57:27;;;;;;;4.13;3.20;;;;;;;23.20;57.15;100165.13;5034610;28;20448;-61
2022/09/02 01:00:37;;;;;;;5.73;3.47;;;;;;;23.18;56.73;100164.69;5051148;28;20485;-60
2022/09/02 01:03:05;;;;;;;12.73;3.77;;;;;;;23.18;57.03;100169.66;5066681;22;20499;-67
2022/09/02 01:05:33;;;;;;;8.63;3.57;;;;;;;23.18;57.31;100163.88;5052624;28;20872;-66
2022/09/02 01:07:59;;;;;;;4.20;3.37;;;;;;;23.17;57.09;100165.91;5053601;28;20540;-66
2022/09/02 01:10:31;;;;;;;4.60;3.10;;;;;;;23.19;57.32;100163.44;5071623;28;20409;-66
2022/09/02 01:12:58;;;;;;;4.40;2.80;;;;;;;23.19;57.57;100166.31;5070571;28;20336;-66
2022/09/02 01:15:24;;;;;;;3.73;2.87;;;;;;;23.20;57.27;100170.03;5070202;28;20417;-66
2022/09/02 01:17:50;;;;;;;5.60;3.77;;;;;;;23.18;57.47;100167.56;5070238;28;20425;-66
2022/09/02 01:20:23;;;;;;;4.23;3.73;;;;;;;23.18;57.57;100163.88;5073732;28;20446;-67
2022/09/02 01:22:48;;;;;;;7.03;3.33;;;;;;;23.17;57.01;100170.81;5086619;28;20183;-67
2022/09/02 01:25:19;;;;;;;6.23;3.63;;;;;;;23.15;57.11;100162.63;5057152;28;20427;-67
2022/09/02 01:27:44;;;;;;;5.73;3.30;;;;;;;23.15;57.39;100164.69;5091863;28;20165;-66
2022/09/02 01:30:12;;;;;;;4.47;3.30;;;;;;;23.15;57.36;100168.38;5091293;28;20404;-67
2022/09/02 01:32:37;;;;;;;5.37;3.40;;;;;;;23.15;57.30;100168.38;5057215;28;20206;-67
2022/09/02 01:35:03;;;;;;;4.77;3.23;;;;;;;23.16;57.22;100163.44;5090953;28;20786;-67
2022/09/02 01:37:31;;;;;;;6.50;3.30;;;;;;;23.15;57.00;100165.50;5057323;28;20197;-67
2022/09/02 01:39:56;;;;;;;4.40;3.13;;;;;;;23.15;57.23;100161.78;5072218;28;20194;-67
2022/09/02 01:42:22;;;;;;;6.50;3.57;;;;;;;23.14;56.92;100163.84;5057244;28;20653;-67
2022/09/02 01:44:47;;;;;;;5.53;3.23;;;;;;;23.13;57.28;100167.16;5073508;28;20204;-66
2022/09/02 01:47:14;;;;;;;4.67;3.20;;;;;;;23.13;56.77;100159.31;5091533;28;20175;-67
2022/09/02 01:49:39;;;;;;;3.67;2.77;;;;;;;23.10;56.46;100157.28;5068914;28;20700;-67
2022/09/02 01:52:05;;;;;;;5.00;3.10;;;;;;;23.10;56.66;100156.47;5070194;28;20453;-67
2022/09/02 01:54:30;;;;;;;5.97;3.50;;;;;;;23.10;56.46;100163.06;5070661;28;20175;-67
2022/09/02 01:56:56;;;;;;;5.50;3.50;;;;;;;23.09;56.67;100158.50;5071067;28;20804;-66
2022/09/02 01:59:22;;;;;;;7.63;4.07;;;;;;;23.07;56.68;100158.13;5053704;28;20561;-67
2022/09/02 02:01:47;;;;;;;4.93;3.33;;;;;;;23.07;56.40;100158.13;5090280;28;20594;-67
2022/09/02 02:04:13;;;;;;;6.90;3.50;;;;;;;23.08;56.46;100154.00;5088588;28;20214;-67
2022/09/02 02:06:41;;;;;;;4.67;3.03;;;;;;;23.08;56.51;100154.00;5089540;28;20256;-67
2022/09/02 02:09:07;;;;;;;5.93;3.30;;;;;;;23.09;56.75;100155.63;5071127;28;20444;-66
2022/09/02 02:11:32;;;;;;;4.90;3.07;;;;;;;23.10;56.33;100159.34;5089465;28;20481;-67
2022/09/02 02:13:58;;;;;;;4.73;3.43;;;;;;;23.09;56.72;100158.50;5071511;28;20208;-67
2022/09/02 02:16:23;;;;;;;3.80;3.30;;;;;;;23.07;55.87;100158.13;5054901;28;20174;-67
2022/09/02 02:18:49;;;;;;;3.83;2.97;;;;;;;23.07;56.49;100154.41;5055475;28;20178;-66
2022/09/02 02:21:14;;;;;;;5.47;3.60;;;;;;;23.06;56.26;100153.59;5072588;28;20252;-67
2022/09/02 02:23:40;;;;;;;5.37;3.70;;;;;;;23.07;56.40;100154.41;5055682;28;20170;-67
2022/09/02 02:26:05;;;;;;;6.17;3.63;;;;;;;23.05;56.34;100154.00;5037119;28;20182;-67
2022/09/02 02:28:31;;;;;;;4.90;3.50;;;;;;;23.04;56.05;100150.31;5056257;28;20174;-66
2022/09/02 02:30:57;;;;;;;3.70;3.27;;;;;;;23.04;56.64;100155.25;5055439;28;20178;-66
2022/09/02 02:33:22;;;;;;;4.57;3.70;;;;;;;23.03;56.11;100151.53;5072743;28;20190;-66
2022/09/02 02:35:48;;;;;;;5.37;3.37;;;;;;;23.05;56.53;100154.84;5057661;28;20581;-66
2022/09/02 02:38:14;;;;;;;4.10;3.30;;;;;;;23.05;56.48;100154.84;5056459;28;20178;-66
2022/09/02 02:40:40;;;;;;;4.90;3.40;;;;;;;23.07;56.25;100148.63;5055629;28;20259;-67
2022/09/02 02:43:05;;;;;;;4.83;3.07;;;;;;;23.07;55.89;100149.47;5072539;28;20431;-66
2022/09/02 02:45:31;;;;;;;8.10;3.70;;;;;;;23.08;56.58;100147.44;5056058;28;20171;-67
2022/09/02 02:47:56;;;;;;;4.60;3.40;;;;;;;23.08;56.22;100154.00;5055488;28;20663;-67
2022/09/02 02:50:22;;;;;;;4.97;3.97;;;;;;;23.08;56.19;100145.34;5054998;28;20171;-67
2022/09/02 02:52:48;;;;;;;4.90;3.50;;;;;;;23.08;56.21;100148.22;5056152;28;20174;-67
2022/09/02 02:55:14;;;;;;;7.77;4.00;;;;;;;23.06;56.57;100150.72;5072559;28;20186;-67
2022/09/02 02:57:39;;;;;;;7.17;3.43;;;;;;;23.06;56.26;100147.84;5072254;28;20477;-67
2022/09/02 03:00:13;;;;;;;3.83;3.20;;;;;;;23.05;56.50;100151.97;5072073;28;20193;-67
2022/09/02 03:02:45;;;;;;;4.20;3.23;;;;;;;23.06;56.12;100147.84;5073011;28;20237;-67
2022/09/02 03:05:12;;;;;;;5.10;3.60;;;;;;;23.06;56.39;100147.84;5072165;28;20470;-67
2022/09/02 03:07:37;;;;;;;5.67;3.57;;;;;;;23.06;56.47;100156.47;5055660;28;20444;-67
2022/09/02 03:10:05;;;;;;;3.83;3.07;;;;;;;23.05;56.59;100146.19;5055461;28;20499;-67
2022/09/02 03:12:32;;;;;;;7.83;3.17;;;;;;;23.06;56.38;100147.84;5056182;28;20644;-67
2022/09/02 03:14:57;;;;;;;6.63;3.50;;;;;;;23.04;56.23;100153.19;5055582;28;20448;-67
2022/09/02 03:17:23;;;;;;;5.03;3.90;;;;;;;23.03;55.95;100151.53;5089975;28;20774;-67
2022/09/02 03:19:49;;;;;;;5.13;3.13;;;;;;;23.03;56.28;100151.53;5089566;28;20190;-67
2022/09/02 03:22:15;;;;;;;5.00;3.50;;;;;;;23.03;56.41;100150.72;5068305;28;20182;-66
2022/09/02 03:24:40;;;;;;;7.13;3.10;;;;;;;23.03;56.27;100147.84;5069038;28;20413;-67
2022/09/02 03:27:05;;;;;;;6.87;3.33;;;;;;;23.03;56.08;100144.97;5070731;28;20171;-66
2022/09/02 03:29:31;;;;;;;6.10;3.10;;;;;;;23.04;56.26;100155.25;5068925;28;20193;-67
2022/09/02 03:31:56;;;;;;;4.90;3.17;;;;;;;23.02;56.38;100143.34;5068882;28;20181;-67
2022/09/02 03:34:22;;;;;;;9.87;3.93;;;;;;;23.01;56.02;100148.25;5054628;28;20244;-67
2022/09/02 03:36:47;;;;;;;5.43;3.47;;;;;;;23.01;56.15;100141.66;5054509;28;20239;-67
2022/09/02 03:39:13;;;;;;;5.10;3.43;;;;;;;23.00;55.90;100140.88;5088762;28;20174;-67
2022/09/02 03:41:41;;;;;;;4.43;3.40;;;;;;;22.99;55.44;100138.41;5089434;28;20584;-67
2022/09/02 03:44:07;;;;;;;6.10;4.10;;;;;;;22.96;55.13;100145.81;5071624;28;20166;-67
2022/09/02 03:46:32;;;;;;;9.23;3.90;;;;;;;22.95;55.15;100131.81;5071538;28;20516;-67
2022/09/02 03:48:58;;;;;;;4.93;3.13;;;;;;;22.93;55.51;100140.88;5089166;28;20178;-67
2022/09/02 03:51:24;;;;;;;5.97;3.50;;;;;;;22.92;55.63;100139.22;5054038;28;20175;-67
2022/09/02 03:53:49;;;;;;;4.83;3.57;;;;;;;22.91;55.85;100143.34;5076778;28;20179;-67
2022/09/02 03:56:15;;;;;;;4.73;3.50;;;;;;;22.88;55.09;100144.16;5055481;28;20174;-67
2022/09/02 03:58:42;;;;;;;11.13;3.57;;;;;;;22.88;55.09;100143.38;5055169;28;20198;-67
2022/09/02 04:01:07;;;;;;;5.80;3.43;;;;;;;22.90;55.37;100141.72;5054928;28;20259;-67
2022/09/02 04:03:33;;;;;;;7.70;3.10;;;;;;;22.90;55.30;100141.72;5057186;28;20488;-67
2022/09/02 04:05:58;;;;;;;7.10;3.33;;;;;;;22.92;55.60;100144.19;5075053;28;20190;-67
2022/09/02 04:08:25;;;;;;;4.27;3.00;;;;;;;22.93;55.61;100140.06;5074601;28;20202;-67
2022/09/02 04:10:50;;;;;;;4.57;3.27;;;;;;;22.92;55.38;100139.22;5070846;28;20492;-67
2022/09/02 04:13:16;;;;;;;4.53;3.20;;;;;;;22.93;55.25;100135.09;5074314;28;20423;-67
2022/09/02 04:15:43;;;;;;;5.30;3.50;;;;;;;22.92;55.13;100133.47;5074756;28;20186;-67
2022/09/02 04:18:10;;;;;;;5.97;3.40;;;;;;;22.91;55.49;100143.34;5075141;28;20756;-67
2022/09/02 04:20:38;;;;;;;5.23;3.47;;;;;;;22.91;55.22;100146.22;5070386;28;20917;-67
2022/09/02 04:23:03;;;;;;;5.80;3.50;;;;;;;22.91;55.39;100136.75;5071782;28;20427;-67
2022/09/02 04:25:29;;;;;;;5.67;3.50;;;;;;;22.91;55.06;100142.50;5071426;28;20421;-67
2022/09/02 04:27:55;;;;;;;4.17;2.67;;;;;;;22.90;55.33;100140.88;5087972;28;20254;-67
2022/09/02 04:30:21;;;;;;;3.17;2.87;;;;;;;22.89;55.19;100136.34;5091998;28;20506;-67
2022/09/02 04:32:47;;;;;;;6.20;3.23;;;;;;;22.88;55.43;100132.66;5054332;28;20229;-67
2022/09/02 04:35:12;;;;;;;6.73;3.40;;;;;;;22.88;55.21;100132.66;5072355;28;20475;-67
2022/09/02 04:37:38;;;;;;;9.70;3.20;;;;;;;22.87;54.83;100142.53;5054967;28;20630;-67
2022/09/02 04:40:04;;;;;;;4.83;3.53;;;;;;;22.87;54.68;100139.66;5072111;28;20187;-67
2022/09/02 04:42:29;;;;;;;5.73;3.33;;;;;;;22.86;55.22;100134.28;5054523;28;20171;-67
2022/09/02 04:44:56;;;;;;;5.90;3.47;;;;;;;22.86;55.27;100140.06;5054632;28;20187;-67
2022/09/02 04:47:22;;;;;;;6.33;3.10;;;;;;;22.86;55.05;100138.00;5074278;28;20205;-67
2022/09/02 04:49:49;;;;;;;4.20;3.23;;;;;;;22.87;54.84;100136.78;5092039;28;20463;-67
2022/09/02 04:52:15;;;;;;;4.00;2.63;;;;;;;22.87;54.80;100142.53;5092341;28;20174;-67
2022/09/02 04:54:40;;;;;;;4.00;3.10;;;;;;;22.86;54.89;100134.28;5092321;28;20427;-67
2022/09/02 04:57:06;;;;;;;4.20;3.30;;;;;;;22.84;54.45;100137.63;5073995;28;20186;-67
2022/09/02 04:59:35;;;;;;;5.67;3.33;;;;;;;22.83;54.51;100141.69;5073933;28;20203;-67
2022/09/02 05:02:01;;;;;;;4.93;3.00;;;;;;;22.82;54.51;100145.81;5073952;28;20177;-67
2022/09/02 05:04:26;;;;;;;3.93;3.07;;;;;;;22.82;54.42;100139.25;5073519;28;20401;-67
2022/09/02 05:06:53;;;;;;;3.67;2.90;;;;;;;22.81;54.57;100143.34;5073269;28;20190;-67
2022/09/02 05:09:19;;;;;;;4.40;2.70;;;;;;;22.78;54.22;100139.25;5073198;28;20248;-67
2022/09/02 05:11:46;;;;;;;7.00;2.97;;;;;;;22.79;53.93;100142.97;5090773;28;20420;-67
2022/09/02 05:14:12;;;;;;;3.77;2.83;;;;;;;22.79;54.19;100143.78;5090787;28;20450;-67
2022/09/02 05:16:38;;;;;;;3.73;3.20;;;;;;;22.79;54.74;100145.84;5073304;28;20417;-67
2022/09/02 05:19:05;;;;;;;6.43;3.70;;;;;;;22.78;54.29;100145.00;5091859;28;20170;-67
2022/09/02 05:21:30;;;;;;;8.37;2.70;;;;;;;22.79;54.85;100149.56;5073938;28;20412;-67
2022/09/02 05:23:56;;;;;;;8.23;2.87;;;;;;;22.80;54.47;100138.84;5091951;28;20418;-67
2022/09/02 05:26:22;;;;;;;4.17;2.93;;;;;;;22.79;54.20;100145.84;5072929;28;20213;-67
2022/09/02 05:28:47;;;;;;;5.50;3.03;;;;;;;22.78;54.38;100144.19;5072781;28;20258;-67
2022/09/02 05:31:14;;;;;;;5.93;3.27;;;;;;;22.77;53.48;100160.63;5088875;28;20647;-67
2022/09/02 05:33:40;;;;;;;4.10;2.83;;;;;;;22.76;54.11;100155.28;5073526;28;20611;-67
2022/09/02 05:36:26;;;;;;;4.13;3.00;;;;;;;22.76;54.27;100159.00;5089472;28;20520;-67
2022/09/02 05:38:51;;;;;;;5.47;2.93;;;;;;;22.76;53.99;100153.25;5073202;28;20455;-67
2022/09/02 05:41:22;;;;;;;4.43;3.03;;;;;;;22.77;54.16;100154.06;5090245;28;20459;-67
2022/09/02 05:43:47;;;;;;;6.57;2.73;;;;;;;22.79;54.30;100157.34;5072219;28;20170;-67
2022/09/02 05:46:16;;;;;;;3.83;2.80;;;;;;;22.78;54.05;100153.63;5068608;28;20471;-67
2022/09/02 05:51:26;;;;;;;3.70;2.90;;;;;;;22.78;54.36;100158.59;5091197;28;20403;-67
2022/09/02 05:53:55;;;;;;;6.53;2.83;;;;;;;22.77;53.63;100157.75;5091291;28;20428;-67
2022/09/02 05:56:20;;;;;;;4.90;3.33;;;;;;;22.76;54.21;100155.28;5090444;28;20633;-67
2022/09/02 05:58:46;;;;;;;5.20;3.40;;;;;;;22.75;54.31;100154.47;5090952;28;20417;-67
2022/09/02 06:01:13;;;;;;;4.10;3.17;;;;;;;22.76;54.38;100155.28;5071669;28;20201;-67
2022/09/02 06:03:38;;;;;;;5.17;2.90;;;;;;;22.69;54.13;100150.38;5090165;28;20349;-67
2022/09/02 06:06:05;;;;;;;5.70;2.63;;;;;;;22.34;55.00;100144.63;5068641;28;20982;-67
2022/09/02 06:08:31;;;;;;;7.70;3.20;;;;;;;22.57;57.09;100149.97;5057615;28;20221;-65
2022/09/02 06:10:57;;;;;;;6.00;4.00;;;;;;;22.83;58.93;100138.03;5071294;28;20537;-67
2022/09/02 06:13:23;;;;;;;6.20;4.00;;;;;;;23.02;58.32;100146.22;5079671;28;20442;-66
2022/09/02 06:15:49;;;;;;;7.30;4.30;;;;;;;22.92;57.84;100144.19;5087948;28;20794;-66
2022/09/02 06:18:15;;;;;;;10.20;4.17;;;;;;;22.84;57.93;100143.38;5090310;28;20223;-66
2022/09/02 06:20:43;;;;;;;12.70;3.57;;;;;;;22.84;58.00;100148.28;5070141;28;20202;-66
2022/09/02 06:23:10;;;;;;;6.23;3.70;;;;;;;22.77;56.96;100149.13;5074585;28;20195;-66
2022/09/02 06:25:36;;;;;;;6.03;3.67;;;;;;;22.73;56.82;100142.53;5086086;28;20447;-66
2022/09/02 06:28:02;;;;;;;6.10;3.60;;;;;;;22.73;56.65;100148.31;5072775;28;20317;-66
2022/09/02 06:30:28;;;;;;;5.10;3.33;;;;;;;22.76;56.18;100146.66;5088239;28;20891;-67
2022/09/02 06:32:54;;;;;;;10.03;5.03;;;;;;;22.78;56.31;100141.31;5070663;28;20601;-67
2022/09/02 06:35:20;;;;;;;6.83;3.97;;;;;;;22.80;56.22;100145.44;5064718;28;20649;-67
2022/09/02 06:37:46;;;;;;;9.30;3.70;;;;;;;22.79;56.03;100140.91;5081269;28;20924;-68
2022/09/02 06:40:12;;;;;;;6.40;3.10;;;;;;;22.78;56.02;100142.13;5077588;28;20493;-67
2022/09/02 06:42:38;;;;;;;9.77;3.67;;;;;;;22.78;55.72;100145.00;5088534;28;20243;-67
2022/09/02 06:45:04;;;;;;;4.67;3.23;;;;;;;22.78;55.87;100144.19;5073562;28;20860;-67
2022/09/02 06:47:30;;;;;;;6.60;3.37;;;;;;;22.78;56.08;100142.13;5051920;28;21191;-67
2022/09/02 06:49:56;;;;;;;6.33;3.30;;;;;;;22.80;55.87;100141.72;5041395;28;20245;-67
2022/09/02 06:52:21;;;;;;;5.60;3.40;;;;;;;22.80;56.05;100136.78;5088159;28;20436;-66
2022/09/02 06:54:48;;;;;;;6.93;3.50;;;;;;;22.77;56.07;100137.59;5082559;28;20636;-67
2022/09/02 06:57:15;;;;;;;5.40;3.33;;;;;;;22.78;56.21;100138.44;5087993;28;20182;-67
2022/09/02 06:59:41;;;;;;;4.70;2.93;;;;;;;22.79;56.27;100135.16;5054595;28;20539;-67
2022/09/02 07:02:07;;;;;;;3.87;2.90;;;;;;;22.80;56.26;100135.97;5088385;28;20846;-67
2022/09/02 07:07:16;;;;;;;6.37;3.40;;;;;;;22.69;56.58;100133.13;5073534;28;20257;-67
2022/09/02 07:09:41;;;;;;;4.07;2.70;;;;;;;22.78;56.71;100130.59;5058264;28;20851;-68
2022/09/02 07:12:07;;;;;;;4.13;2.80;;;;;;;22.66;56.56;100124.47;5089413;28;20239;-68
2022/09/02 07:14:38;;;;;;;5.40;2.83;;;;;;;22.68;55.71;100127.75;5073284;28;20201;-67
2022/09/02 07:17:03;;;;;;;4.73;3.00;;;;;;;22.55;55.96;100136.00;5080478;28;20213;-67
2022/09/02 07:19:29;;;;;;;5.60;2.90;;;;;;;22.64;55.88;100130.66;5052077;28;20432;-67
2022/09/02 07:21:54;;;;;;;5.10;2.33;;;;;;;22.72;55.16;100128.59;5048458;28;20676;-67
2022/09/02 07:24:20;;;;;;;6.83;3.07;;;;;;;22.79;54.83;100128.56;5050540;28;20179;-68
2022/09/02 07:26:45;;;;;;;5.17;3.00;;;;;;;22.74;54.98;100132.69;5061773;28;20706;-67
2022/09/02 07:29:11;;;;;;;11.13;2.63;;;;;;;22.47;54.21;100134.34;5070333;28;20525;-67
2022/09/02 07:31:38;;;;;;;8.23;2.67;;;;;;;22.47;55.47;100122.84;5071035;28;20655;-67
2022/09/02 07:34:05;;;;;;;5.43;2.47;;;;;;;22.37;55.43;100128.59;5078777;28;20190;-67
2022/09/02 07:36:31;;;;;;;5.70;2.80;;;;;;;22.37;55.76;100129.38;5063826;28;20440;-67
2022/09/02 07:38:56;;;;;;;7.80;2.87;;;;;;;22.64;55.45;100124.91;5073210;28;20436;-69
2022/09/02 07:41:22;;;;;;;5.67;2.53;;;;;;;22.81;55.10;100126.91;5057867;28;20205;-69
2022/09/02 07:43:48;;;;;;;5.40;2.30;;;;;;;22.80;55.18;100116.66;5054765;28;20274;-69
2022/09/02 07:46:13;;;;;;;4.50;2.70;;;;;;;22.88;54.57;100124.00;5073641;28;20182;-67
2022/09/02 07:48:39;;;;;;;6.10;2.87;;;;;;;22.58;54.20;100126.53;5081200;28;20657;-68
2022/09/02 07:51:04;;;;;;;5.97;2.27;;;;;;;22.77;54.51;100120.34;5081420;28;20657;-68
2022/09/02 07:53:31;;;;;;;4.07;2.20;;;;;;;22.77;55.06;100119.53;5086457;28;20544;-69
2022/09/02 07:55:57;;;;;;;5.23;2.20;;;;;;;22.74;54.74;100121.19;5057315;28;20196;-69
2022/09/02 07:58:24;;;;;;;4.30;2.30;;;;;;;22.65;54.32;100126.53;5081407;28;20450;-68
2022/09/02 08:00:50;;;;;;;3.07;2.00;;;;;;;22.67;54.60;100123.25;5093012;28;20451;-68
2022/09/02 08:03:16;;;;;;;6.00;2.53;;;;;;;22.54;54.52;100128.63;5056954;28;20568;-68
2022/09/02 08:05:43;;;;;;;9.27;2.20;;;;;;;22.61;54.45;100128.59;5085633;28;20436;-69
2022/09/02 08:08:09;;;;;;;3.73;2.20;;;;;;;22.61;54.01;100128.59;5084840;28;20798;-68
2022/09/02 08:10:34;;;;;;;14.07;2.80;;;;;;;22.72;53.90;100126.50;5055624;28;20420;-69
2022/09/02 08:13:00;;;;;;;5.83;2.07;;;;;;;22.52;52.52;100139.69;5091840;28;20265;-68
2022/09/02 08:15:27;;;;;;;3.63;2.10;;;;;;;22.49;53.78;100128.19;5074224;28;20174;-69
2022/09/02 08:17:53;;;;;;;9.37;2.40;;;;;;;22.52;53.76;100124.50;5078305;28;20208;-68
2022/09/02 08:20:18;;;;;;;9.57;2.37;;;;;;;22.54;52.80;100128.63;5045034;28;20456;-69
2022/09/02 08:22:44;;;;;;;9.93;2.07;;;;;;;22.62;53.38;100123.66;5089769;28;20428;-69
2022/09/02 08:25:09;;;;;;;4.83;2.17;;;;;;;22.60;53.14;100131.88;5072553;28;20170;-68
2022/09/02 08:27:35;;;;;;;3.70;1.80;;;;;;;22.52;52.99;100124.50;5092787;28;20170;-69
2022/09/02 08:30:01;;;;;;;4.97;2.30;;;;;;;22.64;52.71;100127.78;5072847;28;20610;-69
2022/09/02 08:32:27;;;;;;;11.33;3.33;;;;;;;22.74;52.72;100124.06;5078601;28;20287;-69
2022/09/02 08:34:53;;;;;;;6.70;2.40;;;;;;;22.76;52.49;100123.63;5076470;28;20183;-70
2022/09/02 08:37:18;;;;;;;3.30;1.97;;;;;;;22.78;52.49;100115.41;5073298;28;20470;-70
2022/09/02 08:39:47;;;;;;;6.10;1.73;;;;;;;22.77;52.29;100117.47;5090503;28;20190;-69
2022/09/02 08:42:42;;;;;;;3.70;1.80;;;;;;;22.68;50.98;100114.19;5072574;28;20170;-69
2022/09/02 08:45:11;;;;;;;2.90;1.67;;;;;;;22.73;51.24;100108.00;5056837;28;20404;-70
2022/09/02 08:47:37;;;;;;;4.03;1.90;;;;;;;22.85;51.78;100116.22;5073418;28;20427;-70
2022/09/02 08:50:14;;;;;;;3.50;2.10;;;;;;;22.84;50.77;100117.47;5072669;28;20412;-70
2022/09/02 08:52:47;;;;;;;3.23;1.80;;;;;;;22.87;51.12;100105.09;5092320;28;20174;-69
2022/09/02 08:55:17;;;;;;;3.97;1.90;;;;;;;22.88;51.05;100103.84;5074932;28;20404;-70
2022/09/02 08:57:42;;;;;;;4.60;1.47;;;;;;;22.83;50.75;100107.16;5073998;28;21246;-70
2022/09/02 09:00:08;;;;;;;6.93;2.47;;;;;;;22.87;50.19;100101.41;5092003;28;20451;-70
2022/09/02 09:02:55;;;;;;;3.70;1.93;;;;;;;22.88;50.82;100100.19;5073915;28;20336;-69
2022/09/02 09:05:34;;;;;;;2.77;1.30;;;;;;;22.88;50.44;100098.09;5091335;28;20405;-69
2022/09/02 09:08:17;;;;;;;5.30;1.60;;;;;;;22.87;50.81;100102.22;5091510;28;20439;-70
2022/09/02 09:10:58;;;;;;;3.73;1.80;;;;;;;22.90;49.93;100089.88;5069381;28;20769;-69
2022/09/02 09:13:51;;;;;;;3.30;1.80;;;;;;;22.90;49.26;100094.81;5072681;28;20416;-70
2022/09/02 09:16:22;;;;;;;3.10;1.70;;;;;;;22.93;49.84;100094.78;5090931;28;20472;-70
2022/09/02 09:19:06;;;;;;;3.03;1.77;;;;;;;22.93;48.42;100091.13;5087520;28;20424;-69
2022/09/02 09:21:32;;;;;;;3.97;1.83;;;;;;;22.96;49.46;100088.22;5053910;28;20548;-70
2022/09/02 09:23:59;;;;;;;3.10;1.70;;;;;;;22.99;49.73;100080.81;5052280;28;20432;-70
2022/09/02 09:26:29;;;;;;;3.80;2.00;;;;;;;22.99;49.48;100075.03;5068286;28;20179;-70
2022/09/02 09:28:58;;;;;;;2.30;1.30;;;;;;;23.02;49.96;100079.97;5068202;28;20425;-70
2022/09/02 09:31:28;;;;;;;2.30;1.30;;;;;;;23.04;49.60;100075.44;5086136;28;20437;-70
2022/09/02 09:34:01;;;;;;;6.43;2.17;;;;;;;23.04;49.84;100075.44;5052694;28;20433;-69
2022/09/02 09:36:39;;;;;;;2.83;1.30;;;;;;;23.05;48.85;100064.72;5036151;28;20416;-70
2022/09/02 09:39:28;;;;;;;4.10;1.50;;;;;;;23.01;49.26;100061.88;5070203;28;20416;-70
2022/09/02 09:42:02;;;;;;;2.83;1.37;;;;;;;23.04;47.49;100063.09;5070886;28;20398;-69
2022/09/02 09:44:39;;;;;;;5.80;1.63;;;;;;;23.09;47.99;100063.47;5036449;28;20418;-69
2022/09/02 09:47:07;;;;;;;3.90;1.23;;;;;;;23.08;46.84;100056.06;5070736;28;20404;-70
2022/09/02 09:49:33;;;;;;;4.30;1.50;;;;;;;23.12;48.05;100054.00;5048563;28;20408;-70
2022/09/02 09:51:59;;;;;;;4.90;2.17;;;;;;;23.15;47.33;100056.06;5073023;28;20957;-70
2022/09/02 09:54:25;;;;;;;2.67;1.23;;;;;;;23.18;45.46;100058.13;5068318;28;20421;-69
2022/09/02 09:56:50;;;;;;;3.70;1.37;;;;;;;23.22;43.27;100050.28;5069815;28;20171;-70
2022/09/02 09:59:41;;;;;;;4.83;1.70;;;;;;;23.21;46.32;100037.13;5071102;28;20171;-70
2022/09/02 10:02:25;;;;;;;3.63;1.70;;;;;;;23.24;42.74;100032.59;5071683;28;20205;-70
2022/09/02 10:05:07;;;;;;;2.83;1.30;;;;;;;23.27;43.93;100046.97;5073373;28;20400;-69
2022/09/02 10:07:40;;;;;;;3.67;1.70;;;;;;;23.24;45.44;100041.22;5071563;28;20504;-70
2022/09/02 10:10:22;;;;;;;2.60;1.20;;;;;;;23.30;41.26;100034.63;5088639;28;20400;-69
2022/09/02 10:12:49;;;;;;;2.90;1.20;;;;;;;23.28;44.03;100030.53;5088716;28;20807;-69
2022/09/02 10:15:16;;;;;;;2.87;1.40;;;;;;;23.24;43.36;100021.88;5069917;28;20427;-70
2022/09/02 10:17:54;;;;;;;2.10;1.20;;;;;;;23.24;42.93;100023.94;5054766;28;20416;-69
2022/09/02 10:20:50;;;;;;;2.63;1.40;;;;;;;23.26;44.15;100021.47;5070983;28;20447;-69
2022/09/02 10:23:31;;;;;;;2.97;1.43;;;;;;;23.29;44.08;100009.91;5089369;28;20459;-69
2022/09/02 10:26:26;;;;;;;1.90;1.10;;;;;;;23.30;41.17;100005.81;5086723;28;20507;-69
2022/09/02 10:29:07;;;;;;;2.70;1.40;;;;;;;23.39;40.06;99994.63;5087879;28;20498;-69
2022/09/02 10:31:51;;;;;;;2.60;1.50;;;;;;;23.34;40.58;99989.31;5087553;28;20478;-69
2022/09/02 10:34:49;;;;;;;5.27;1.20;;;;;;;23.34;41.69;99994.25;5084901;28;20421;-70
2022/09/02 10:37:18;;;;;;;5.50;1.60;;;;;;;23.37;42.16;99981.88;5072777;28;20943;-69
2022/09/02 10:40:02;;;;;;;2.40;1.30;;;;;;;23.40;42.77;99987.63;5088302;28;20540;-69
2022/09/02 10:42:51;;;;;;;2.70;1.73;;;;;;;23.43;41.94;99978.13;5088907;28;20393;-69
2022/09/02 10:45:23;;;;;;;3.43;1.50;;;;;;;23.46;41.67;99979.34;5089649;28;20420;-69
2022/09/02 10:48:12;;;;;;;3.50;1.40;;;;;;;23.35;43.67;99970.78;5071979;28;20519;-69
2022/09/02 10:51:05;;;;;;;3.30;1.50;;;;;;;23.40;44.05;99975.28;5071187;28;20957;-70
2022/09/02 10:53:53;;;;;;;2.03;1.20;;;;;;;23.49;41.73;99979.31;5028527;28;20457;-69
2022/09/02 10:56:22;;;;;;;2.80;1.43;;;;;;;23.46;43.07;99979.34;5068810;28;20512;-70
2022/09/02 10:59:06;;;;;;;2.33;1.40;;;;;;;23.50;40.60;99975.22;5051057;28;20425;-69
2022/09/02 11:01:40;;;;;;;3.40;1.50;;;;;;;23.48;41.91;99982.66;5050870;28;20907;-69
2022/09/02 11:04:17;;;;;;;2.27;1.23;;;;;;;23.47;42.80;99969.47;5053336;28;20460;-69
2022/09/02 11:06:43;;;;;;;2.17;1.00;;;;;;;23.46;42.27;99973.59;5089879;28;20432;-69
2022/09/02 11:09:37;;;;;;;3.20;1.30;;;;;;;23.51;42.48;99971.09;5071852;28;20489;-70
2022/09/02 11:12:10;;;;;;;3.30;1.50;;;;;;;23.52;43.15;99972.72;5089358;28;20174;-69
2022/09/02 11:15:16;;;;;;;2.70;1.47;;;;;;;23.60;41.96;99968.56;5072098;28;20413;-69
2022/09/02 11:17:42;;;;;;;3.00;1.40;;;;;;;23.59;42.38;99964.00;5067167;28;20511;-69
2022/09/02 11:20:33;;;;;;;3.93;1.50;;;;;;;23.57;39.77;99960.75;5087020;28;20535;-70
2022/09/02 11:23:26;;;;;;;2.80;1.17;;;;;;;23.53;41.37;99959.94;5089790;28;20162;-69
2022/09/02 11:26:00;;;;;;;2.30;1.40;;;;;;;23.55;42.10;99963.25;5089840;28;20887;-69
2022/09/02 11:28:37;;;;;;;2.83;1.13;;;;;;;23.55;42.32;99968.19;5072199;28;20534;-69
2022/09/02 11:31:19;;;;;;;2.33;1.27;;;;;;;23.54;41.90;99964.47;5072006;28;20424;-69
2022/09/02 11:34:00;;;;;;;2.40;1.37;;;;;;;23.58;42.55;99962.38;5071465;28;20890;-69
2022/09/02 11:36:26;;;;;;;2.83;1.00;;;;;;;23.57;42.70;99957.88;5088933;28;20431;-69
2022/09/02 11:39:01;;;;;;;3.83;1.80;;;;;;;23.63;41.72;99967.69;5054421;28;20425;-69
2022/09/02 11:41:45;;;;;;;5.10;1.47;;;;;;;23.68;41.75;99960.66;5070441;28;20459;-70